Mc Call, Idaho
Current Conditions -  °F | °C
As of 3:51 PM on Saturday 25 Oct 2014 (Local Time) from KMYL Reporting Station
Overcast Overcast  
Wind Chill: 61°   Ceiling: 12000
Heat Index: 61°   Visibility: 10mi
Dew Point: 37°   Wind: 17mph
Humidity: 41%   Direction: 160°SSE
Pressure: 29.79"   Gusts: 24mph
Location:  44.8918°N, 116.0789°W
Report Text: KMYL 252151Z AUTO 16015G21KT 10SM OVC120 16/03 A2979 RMK AO2 SLP074 T01610028
Loading
Personal Weather Stations






























Interactive Weather Map
Tropical Storm Tracking
New forecast layout! Learn more

10-Day Weather Forecast

Advertisements
Track Severe Weather on mobile